Chrysanthemum — C6XO4 — position and weather

sailwx.info

Track history (hours):
 
Tides and Currents Weather Stations Pressure Air Temp Water Temp Dewpoint Dewpoint Depression Visibility Wind Speed Wind Dir Waves Ship Positions

Chrysanthemum

Last reported at 2017-Jun-11 16:50 UTC. Time now 2017-Jun-26 08:53 UTC.
Position N 01°15' E 104°04'.
Warning: this ship's position is 14 days out of date.

Length 244 m; draft 13.1 m.

Type: Ship. MMSI: 311015300.

Date/timePositionNaut miles runAvg speedWind from/ knotsBaromVisibWave heightAir tempDewpointWater temp
2017-Jun-11 16:50N 01°15' E 104°04'512.8
2017-Jun-11 16:28N 01°14' E 103°59'612.2
2017-Jun-11 16:00N 01°12' E 103°54'611.5
2017-Jun-11 15:31N 01°10' E 103°49'510.9
2017-Jun-11 15:01N 01°06' E 103°45'510.9
2017-Jun-11 14:30N 01°03' E 103°40'1111.4
2017-Jun-11 13:30N 01°08' E 103°30'611.6
2017-Jun-11 12:58N 01°11' E 103°25'511.2
2017-Jun-11 12:30N 01°15' E 103°21'  
Track history (hours):
 
Tides and Currents Weather Stations Pressure Air Temp Water Temp Dewpoint Dewpoint Depression Visibility Wind Speed Wind Dir Waves Ship Positions

Chrysanthemum

Last reported at 2017-Jun-11 16:50 UTC. Time now 2017-Jun-26 08:53 UTC.
Position N 01°15' E 104°04'.
Warning: this ship's position is 14 days out of date.

Length 244 m; draft 13.1 m.

Type: Ship. MMSI: 311015300.

Date/timePositionNaut miles runAvg speedWind from/ knotsBaromVisibWave heightAir tempDewpointWater temp
2017-Jun-11 16:50N 01°15' E 104°04'512.8
2017-Jun-11 16:28N 01°14' E 103°59'612.2
2017-Jun-11 16:00N 01°12' E 103°54'611.5
2017-Jun-11 15:31N 01°10' E 103°49'510.9
2017-Jun-11 15:01N 01°06' E 103°45'510.9
2017-Jun-11 14:30N 01°03' E 103°40'1111.4
2017-Jun-11 13:30N 01°08' E 103°30'611.6
2017-Jun-11 12:58N 01°11' E 103°25'511.2
2017-Jun-11 12:30N 01°15' E 103°21'  

Dump ship's entire track history